Warning: fopen(/var/www/metroair/shared/private/wxdata/metar/AVWX/metar_EDDF): failed to open stream: Permission denied in /var/www/metroair/shared/private/library/orig_library/lib_airport.php on line 346

Warning: fwrite() expects parameter 1 to be resource, boolean given in /var/www/metroair/shared/private/library/orig_library/lib_airport.php on line 347

Warning: fclose() expects parameter 1 to be resource, boolean given in /var/www/metroair/shared/private/library/orig_library/lib_airport.php on line 348

Warning: fopen(/var/www/metroair/shared/private/wxdata/TAF/AVWX/taf_EDDF): failed to open stream: Permission denied in /var/www/metroair/shared/private/library/orig_library/lib_airport.php on line 533

Warning: fwrite() expects parameter 1 to be resource, boolean given in /var/www/metroair/shared/private/library/orig_library/lib_airport.php on line 534

Warning: fclose() expects parameter 1 to be resource, boolean given in /var/www/metroair/shared/private/library/orig_library/lib_airport.php on line 535

MET6039 - London Heathrow to Frankfurt

Boeing 737-800
G-FLII - Fly UK
1 hr 10 mins
354 nm
Fly UK Codeshare - Daily

Departure

Departing from
London Heathrow (LHR)
Departure gate
Terminal 3
Scheduled Departure
GMT 1240
Local 1240
METAR EGLL 161220Z 11005KT 6000 -RA FEW005 SCT007 BKN015 05/05 Q1028 TEMPO BKN014
TAF TAF EGLL 161054Z 1612/1718 12003KT 7000 -RA SCT009 BKN016 TEMPO 1612/1618 4800 -RADZ BKN012 BECMG 1616/1619 9999 NSW PROB30 TEMPO 1703/1709 5000 BR BKN004
  • No charts available

Arrival

Arriving at
Frankfurt (FRA)
Arrival gate
Terminal 1B
Scheduled Arrival
GMT 1350
Local 1450
METAR EDDF 161220Z 05011KT 9999 SCT022 00/M05 Q1025 R07L/0///95 R07C/11//95 R07R/0///95 R18/11//95 NOSIG
TAF TAF EDDF 161100Z 1612/1718 04006KT 9999 SCT025 BECMG 1705/1707 BKN025 BECMG 1710/1712 04011KT

Route Map

Planning Resources

EGLL DVR UL9 KONAN UL607 SPI UT180 PESOV T180 UNOKO EDDF
EGLL DVR KOK ROLIS EDDF
DET UL6 DVR UL9 KONAN UL607 SPI UT180 PESOV T180 UNOKO
EGLL BIG DVR KOK UL607 UBIDU RUDUS EDDF
DET2G DET DCT DVR UL9 KONAN UL607 SPI UT180 PESOV T180 RASVO/N0426F230 T180 UNOKO UNOK1B
Route:
OFP Layout:
Units:
Detailed Navlog:
ETOPS Planning:
Plan Stepclimbs:
Runway Analysis:
Include NOTAMS:
FIR NOTAMS:
Flight Maps:

Return Flights

MET6040 (Operated by Fly UK)
Boeing 737-800
1420 GMT

Popularity

Hub Current Bids PiReps this month Total PiReps
KMCI 0 0 2
KLAX 0 0 8
KBOS 0 0 1